Time;durP1;ratioP1;P1;durP2;ratioP2;P2;SDS_P1;SDS_P2;PMS_P1;PMS_P2;Temp;Humidity;BMP_temperature;BMP_pressure;BME280_temperature;BME280_humidity;BME280_pressure;Samples;Min_cycle;Max_cycle;Signal;HPM_P1;HPM_P2
2022/05/14 00:02:12;;;;;;;1999.90;999.90;;;;;;;8.96;78.50;99830.84;8274410;28;20150;-70
2022/05/14 00:06:17;;;;;;;1999.90;999.90;;;;;;;8.94;78.63;99829.97;8281038;28;20049;-70
2022/05/14 00:10:21;;;;;;;1999.90;999.90;;;;;;;8.95;79.21;99840.34;8290307;28;20641;-70
2022/05/14 00:14:23;;;;;;;1999.90;999.90;;;;;;;8.93;78.73;99830.81;8246769;28;20062;-70
2022/05/14 00:18:24;;;;;;;1999.90;999.90;;;;;;;8.86;79.25;99819.56;8272810;28;20046;-70
2022/05/14 00:22:26;;;;;;;1999.90;999.90;;;;;;;8.77;79.26;99816.88;8282505;28;20441;-71
2022/05/14 00:26:28;;;;;;;1999.90;999.90;;;;;;;8.76;79.51;99817.72;8274755;28;20462;-70
2022/05/14 00:30:31;;;;;;;1999.90;999.90;;;;;;;8.75;79.61;99814.25;8275717;28;20718;-70
2022/05/14 00:34:32;;;;;;;1999.90;999.90;;;;;;;8.68;79.59;99816.78;8283850;28;20745;-70
2022/05/14 00:38:34;;;;;;;1999.90;999.90;;;;;;;8.69;79.98;99821.13;8284927;28;20050;-70
2022/05/14 00:42:35;;;;;;;1999.90;999.90;;;;;;;8.63;80.43;99826.25;8278707;28;20057;-70
2022/05/14 00:46:49;;;;;;;1999.90;999.90;;;;;;;8.51;79.54;99823.50;8279256;28;20327;-70
2022/05/14 00:50:55;;;;;;;;;;;;;;;8.41;79.99;99831.16;8280367;28;20066;-70
2022/05/14 00:55:01;;;;;;;1999.90;999.90;;;;;;;8.33;80.39;99826.72;8258750;28;19925;-70
2022/05/14 00:59:13;;;;;;;1999.90;999.90;;;;;;;8.29;80.45;99830.13;8264085;28;20046;-70
2022/05/14 01:03:15;;;;;;;1999.90;999.90;;;;;;;8.25;80.54;99820.56;8263538;28;20044;-70
2022/05/14 01:07:19;;;;;;;1999.90;999.90;;;;;;;8.24;81.11;99819.72;8246572;28;20069;-70
2022/05/14 01:11:20;;;;;;;1999.90;999.90;;;;;;;8.24;81.10;99830.06;8276105;28;20052;-70
2022/05/14 01:15:36;;;;;;;1999.90;999.90;;;;;;;8.23;80.72;99820.56;8275987;28;20433;-71
2022/05/14 01:19:38;;;;;;;1999.90;999.90;;;;;;;8.24;80.54;99821.44;8277391;28;20050;-70
2022/05/14 01:28:13;;;;;;;1999.90;999.90;;;;;;;8.11;81.07;99815.25;8285544;28;20129;-70
2022/05/14 01:32:15;;;;;;;1999.90;999.90;;;;;;;8.09;80.87;99812.66;8287271;28;20133;-70
2022/05/14 01:36:17;;;;;;;1999.90;999.90;;;;;;;8.10;80.78;99816.13;8269904;28;20082;-70
2022/05/14 01:40:18;;;;;;;1999.90;999.90;;;;;;;8.05;81.20;99813.44;8287932;28;20052;-70
2022/05/14 01:44:20;;;;;;;1999.90;999.90;;;;;;;8.03;81.09;99817.75;8264676;28;20042;-70
2022/05/14 01:48:22;;;;;;;1999.90;999.90;;;;;;;8.02;81.97;99815.13;8284141;28;20070;-70
2022/05/14 01:52:23;;;;;;;1999.90;999.90;;;;;;;8.01;81.51;99818.56;8269639;28;20425;-70
2022/05/14 01:56:25;;;;;;;1999.90;999.90;;;;;;;7.98;81.48;99811.66;8270598;28;20061;-70
2022/05/14 02:00:26;;;;;;;1999.90;999.90;;;;;;;7.88;81.37;99813.22;8282934;28;20796;-70
2022/05/14 02:04:28;;;;;;;1999.90;999.90;;;;;;;7.84;81.63;99818.34;8288564;28;20042;-70
2022/05/14 02:08:30;;;;;;;1999.90;999.90;;;;;;;7.80;81.47;99809.69;8293266;28;20080;-69
2022/05/14 02:12:31;;;;;;;1999.90;999.90;;;;;;;7.76;81.42;99818.25;8289402;28;20823;-70
2022/05/14 02:16:33;;;;;;;1999.90;999.90;;;;;;;7.67;82.00;99812.94;8285319;28;20390;-70
2022/05/14 02:20:35;;;;;;;1999.90;999.90;;;;;;;7.69;82.39;99805.22;8290752;28;20077;-70
2022/05/14 02:24:37;;;;;;;1999.90;999.90;;;;;;;7.69;82.22;99803.50;8274445;28;20366;-70
2022/05/14 02:28:40;;;;;;;1999.90;999.90;;;;;;;7.65;82.30;99808.59;8274572;28;20643;-70
2022/05/14 02:32:41;;;;;;;1999.90;999.90;;;;;;;7.62;82.24;99808.56;8288739;28;20145;-70
2022/05/14 02:36:43;;;;;;;1999.90;999.90;;;;;;;7.56;82.17;99799.91;8290889;28;20662;-70
2022/05/14 02:40:45;;;;;;;1999.90;999.90;;;;;;;7.54;82.22;99813.63;8290137;28;20084;-70
2022/05/14 02:44:46;;;;;;;1999.90;999.90;;;;;;;7.48;82.38;99818.69;8276424;28;20112;-70
2022/05/14 02:48:48;;;;;;;1999.90;999.90;;;;;;;7.44;82.40;99816.94;8283613;28;20112;-70
2022/05/14 02:52:50;;;;;;;1999.90;999.90;;;;;;;7.38;82.45;99822.88;8290052;28;20057;-70
2022/05/14 02:56:52;;;;;;;1999.90;999.90;;;;;;;7.37;83.06;99823.72;8273635;28;20073;-70
2022/05/14 03:00:53;;;;;;;1999.90;999.90;;;;;;;7.26;83.37;99823.53;8285635;28;20053;-70
2022/05/14 03:04:55;;;;;;;1999.90;999.90;;;;;;;7.19;83.46;99813.97;8267433;28;20069;-71
2022/05/14 03:08:57;;;;;;;1999.90;999.90;;;;;;;7.18;83.59;99816.50;8288065;28;20535;-70
2022/05/14 03:12:58;;;;;;;1999.90;999.90;;;;;;;7.18;83.35;99814.81;8282977;28;20355;-70
2022/05/14 03:17:00;;;;;;;1999.90;999.90;;;;;;;7.12;83.22;99826.75;8277160;28;20148;-70
2022/05/14 03:21:01;;;;;;;1999.90;999.90;;;;;;;7.08;83.19;99823.25;8268803;28;20049;-70
2022/05/14 03:25:04;;;;;;;1999.90;999.90;;;;;;;7.11;83.24;99820.72;8276320;28;20366;-70
2022/05/14 03:29:07;;;;;;;1999.90;999.90;;;;;;;7.10;82.99;99820.69;8267926;28;20056;-70
2022/05/14 03:33:08;;;;;;;;;;;;;;;7.06;83.22;99818.91;8300923;28;20046;-70
2022/05/14 03:37:10;;;;;;;1999.90;999.90;;;;;;;7.02;83.33;99823.16;8265964;28;19969;-70
2022/05/14 03:41:11;;;;;;;1999.90;999.90;;;;;;;6.97;82.91;99820.47;8284880;28;20091;-70
2022/05/14 03:45:13;;;;;;;1999.90;999.90;;;;;;;6.96;82.80;99817.88;8285554;28;20154;-70
2022/05/14 03:49:15;;;;;;;1999.90;999.90;;;;;;;6.89;83.00;99824.66;8292657;28;20123;-70
2022/05/14 03:53:17;;;;;;;1999.90;999.90;;;;;;;6.74;83.15;99820.94;8287523;28;20045;-70
2022/05/14 03:57:19;;;;;;;1999.90;999.90;;;;;;;6.69;84.15;99828.59;8287983;28;20121;-70
2022/05/14 04:01:20;;;;;;;1999.90;999.90;;;;;;;6.75;83.74;99826.13;8283449;28;20080;-70
2022/05/14 04:05:22;;;;;;;1999.90;999.90;;;;;;;6.78;84.09;99828.75;8287341;28;20547;-71
2022/05/14 04:09:24;;;;;;;1999.90;999.90;;;;;;;6.82;83.64;99832.25;8287518;28;20050;-70
2022/05/14 04:13:26;;;;;;;1999.90;999.90;;;;;;;6.83;83.62;99834.88;8252548;28;20109;-70
2022/05/14 04:17:28;;;;;;;1999.90;999.90;;;;;;;6.81;83.31;99831.38;8279346;28;20042;-71
2022/05/14 04:21:32;;;;;;;1999.90;999.90;;;;;;;6.83;83.74;99834.00;8281630;28;20410;-70
2022/05/14 04:25:34;;;;;;;1999.90;999.90;;;;;;;6.87;83.79;99833.22;8284309;28;20054;-70
2022/05/14 04:29:35;;;;;;;1999.90;999.90;;;;;;;6.93;84.35;99836.75;8287884;28;20061;-71
2022/05/14 04:33:37;;;;;;;1999.90;999.90;;;;;;;7.01;84.19;99834.34;8285080;28;20674;-70
2022/05/14 04:37:38;;;;;;;1999.90;999.90;;;;;;;7.14;84.13;99837.97;8286653;28;20092;-71
2022/05/14 04:41:40;;;;;;;1999.90;999.90;;;;;;;7.30;84.38;99842.53;8266620;28;20078;-71
2022/05/14 04:45:46;;;;;;;1999.90;999.90;;;;;;;7.45;84.54;99835.03;8282604;28;20061;-70
2022/05/14 04:49:49;;;;;;;1999.90;999.90;;;;;;;7.54;83.81;99842.94;8286348;28;20138;-71
2022/05/14 04:53:50;;;;;;;1999.90;999.90;;;;;;;7.68;83.16;99843.13;8286651;28;20041;-71
2022/05/14 04:57:52;;;;;;;1999.90;999.90;;;;;;;7.76;82.91;99849.28;8285795;28;20073;-71
2022/05/14 05:06:18;;;;;;;1999.90;999.90;;;;;;;8.17;82.40;99844.66;8272173;28;20045;-71
2022/05/14 05:10:20;;;;;;;1999.90;999.90;;;;;;;8.36;82.00;99853.53;8305597;28;20041;-71
2022/05/14 05:14:22;;;;;;;1999.90;999.90;;;;;;;8.61;81.15;99852.06;8301600;28;20073;-71
2022/05/14 05:18:24;;;;;;;1999.90;999.90;;;;;;;8.90;80.37;99860.16;8301877;28;20045;-71
2022/05/14 05:22:25;;;;;;;1999.90;999.90;;;;;;;9.34;78.96;99863.16;8291909;28;20041;-71
2022/05/14 05:26:26;;;;;;;1999.90;999.90;;;;;;;9.93;77.05;99852.31;8308621;28;20073;-71
2022/05/14 05:30:28;;;;;;;1999.90;999.90;;;;;;;10.75;74.82;99861.31;8275286;28;20064;-71
2022/05/14 05:34:29;;;;;;;1999.90;999.90;;;;;;;11.38;72.12;99865.75;8290646;28;20100;-72
2022/05/14 05:38:31;;;;;;;1999.90;999.90;;;;;;;11.72;71.10;99857.91;8289354;28;20041;-72
2022/05/14 05:42:32;;;;;;;1999.90;999.90;;;;;;;11.87;70.35;99862.25;8287251;28;20047;-72
2022/05/14 05:46:34;;;;;;;1999.90;999.90;;;;;;;12.13;69.83;99857.84;8285206;28;20089;-73
2022/05/14 05:50:38;;;;;;;1999.90;999.90;;;;;;;12.64;68.78;99850.69;8287656;28;20458;-73
2022/05/14 05:59:01;;;;;;;1999.90;999.90;;;;;;;13.60;65.25;99847.38;8284276;28;20042;-74
2022/05/14 06:03:02;;;;;;;1999.90;999.90;;;;;;;14.10;63.36;99854.69;8299129;28;20137;-73
2022/05/14 06:07:11;;;;;;;1999.90;999.90;;;;;;;14.52;62.87;99852.47;8267618;28;20129;-73
2022/05/14 06:11:12;;;;;;;1999.90;999.90;;;;;;;14.92;61.18;99849.34;8285421;28;20064;-73
2022/05/14 06:15:18;;;;;;;1999.90;999.90;;;;;;;15.30;59.23;99854.84;8281292;28;20053;-73
2022/05/14 06:19:24;;;;;;;1999.90;999.90;;;;;;;15.69;58.88;99860.31;8288738;28;20986;-73
2022/05/14 06:23:25;;;;;;;1999.90;999.90;;;;;;;15.93;57.98;99866.84;8265500;28;20602;-73
2022/05/14 06:27:27;;;;;;;1999.90;999.90;;;;;;;16.32;57.59;99859.97;8280461;28;20664;-73
2022/05/14 06:31:28;;;;;;;1999.90;999.90;;;;;;;16.73;56.33;99860.91;8264538;28;20349;-73
2022/05/14 06:35:30;;;;;;;1999.90;999.90;;;;;;;17.09;55.72;99860.09;8293198;28;20049;-72
2022/05/14 06:39:32;;;;;;;1999.90;999.90;;;;;;;17.37;54.36;99875.16;8287907;28;20134;-72
2022/05/14 06:43:33;;;;;;;1999.90;999.90;;;;;;;17.62;54.12;99867.56;8268046;28;20038;-72
2022/05/14 06:47:35;;;;;;;1999.90;999.90;;;;;;;17.86;53.30;99868.69;8269416;28;20054;-73
2022/05/14 06:51:37;;;;;;;1999.90;999.90;;;;;;;18.15;52.79;99862.66;8287914;28;20156;-72
2022/05/14 06:55:41;;;;;;;1999.90;999.90;;;;;;;18.31;52.53;99864.81;8287520;28;20473;-72
2022/05/14 06:59:42;;;;;;;1999.90;999.90;;;;;;;18.46;51.80;99866.13;8272017;28;20045;-72
2022/05/14 07:08:04;;;;;;;1999.90;999.90;;;;;;;18.70;50.72;99881.25;8292167;28;20074;-73
2022/05/14 07:12:10;;;;;;;1999.90;999.90;;;;;;;19.01;50.30;99875.03;8256670;28;20048;-72
2022/05/14 07:16:12;;;;;;;1999.90;999.90;;;;;;;19.31;51.07;99876.69;8270958;28;20077;-72
2022/05/14 07:20:13;;;;;;;1999.90;999.90;;;;;;;19.54;50.31;99875.13;8273059;28;20069;-72
2022/05/14 07:24:24;;;;;;;1999.90;999.90;;;;;;;19.74;49.09;99879.72;8274012;28;20048;-72
2022/05/14 07:28:25;;;;;;;1999.90;999.90;;;;;;;20.00;48.91;99873.56;8249594;28;20069;-73
2022/05/14 07:32:33;;;;;;;1999.90;999.90;;;;;;;20.24;48.01;99870.03;8262202;28;20137;-73
2022/05/14 07:36:41;;;;;;;1999.90;999.90;;;;;;;20.34;47.67;99860.03;8280459;28;20076;-72
2022/05/14 07:40:44;;;;;;;1999.90;999.90;;;;;;;20.57;48.03;99861.84;8264896;28;20441;-73
2022/05/14 07:44:50;;;;;;;1999.90;999.90;;;;;;;20.71;46.11;99867.44;8291698;28;20423;-73
2022/05/14 07:48:53;;;;;;;1999.90;999.90;;;;;;;20.83;45.50;99864.34;8293907;28;20064;-73
2022/05/14 07:52:56;;;;;;;1999.90;999.90;;;;;;;20.83;44.51;99864.34;8273856;28;20129;-73
2022/05/14 07:56:58;;;;;;;1999.90;999.90;;;;;;;21.01;44.65;99866.28;8278000;28;20121;-73
2022/05/14 08:01:00;;;;;;;1999.90;999.90;;;;;;;21.27;46.10;99867.88;8271225;28;20137;-72
2022/05/14 08:05:03;;;;;;;1999.90;999.90;;;;;;;21.36;42.72;99861.34;8256997;28;20050;-72
2022/05/14 08:09:05;;;;;;;1999.90;999.90;;;;;;;21.53;42.91;99863.31;8279179;28;20077;-73
2022/05/14 08:13:06;;;;;;;1999.90;999.90;;;;;;;21.64;42.51;99863.72;8267022;28;20525;-73
2022/05/14 08:17:11;;;;;;;1999.90;999.90;;;;;;;21.99;43.53;99856.94;8252862;28;20050;-72
2022/05/14 08:25:33;;;;;;;1999.90;999.90;;;;;;;22.75;40.50;99857.91;8268570;28;20506;-72
2022/05/14 08:29:35;;;;;;;1999.90;999.90;;;;;;;23.08;38.76;99859.00;8273863;28;20050;-73
2022/05/14 08:33:37;;;;;;;1999.90;999.90;;;;;;;23.08;38.79;99856.34;8284942;28;20073;-73
2022/05/14 08:37:39;;;;;;;1999.90;999.90;;;;;;;23.16;37.39;99867.47;8275714;28;20050;-73
2022/05/14 08:41:44;;;;;;;1999.90;999.90;;;;;;;23.10;34.96;99858.94;8268647;28;20050;-73
2022/05/14 08:45:46;;;;;;;1999.90;999.90;;;;;;;23.02;37.45;99853.16;8252352;28;20052;-73
2022/05/14 08:49:50;;;;;;;;;;;;;;;23.20;37.15;99854.91;8278379;28;20066;-72
2022/05/14 08:53:51;;;;;;;1999.90;999.90;;;;;;;23.12;35.96;99857.91;8261205;28;19936;-72
2022/05/14 08:57:59;;;;;;;1999.90;999.90;;;;;;;23.13;36.01;99853.47;8282453;28;21234;-72
2022/05/14 09:02:07;;;;;;;1999.90;999.90;;;;;;;23.38;37.28;99861.97;8268211;28;20164;-72
2022/05/14 09:06:08;;;;;;;1999.90;999.90;;;;;;;23.42;36.45;99849.41;8275803;28;20635;-72
2022/05/14 09:10:25;;;;;;;1999.90;999.90;;;;;;;23.48;35.21;99843.78;8251582;28;20064;-71
2022/05/14 09:14:38;;;;;;;1999.90;999.90;;;;;;;23.53;37.52;99841.78;8271206;28;20132;-71
2022/05/14 09:18:48;;;;;;;1999.90;999.90;;;;;;;23.47;35.49;99848.22;8269684;28;20057;-71
2022/05/14 09:22:54;;;;;;;1999.90;999.90;;;;;;;22.96;36.24;99853.44;8283870;28;20120;-71
2022/05/14 09:27:21;;;;;;;1999.90;999.90;;;;;;;23.18;38.68;99847.03;8284467;28;20498;-72
2022/05/14 09:31:29;;;;;;;1999.90;999.90;;;;;;;23.51;37.29;99844.47;8252347;28;20148;-71
2022/05/14 09:35:33;;;;;;;1999.90;999.90;;;;;;;23.68;35.92;99850.75;8289819;28;20521;-72
2022/05/14 09:39:36;;;;;;;1999.90;999.90;;;;;;;23.57;35.48;99840.72;8279139;28;20049;-72
2022/05/14 09:43:39;;;;;;;1999.90;999.90;;;;;;;23.44;35.45;99845.75;8277846;28;20042;-71
2022/05/14 09:47:40;;;;;;;1999.90;999.90;;;;;;;23.56;35.79;99844.28;8279316;28;20128;-71
2022/05/14 09:51:53;;;;;;;1999.90;999.90;;;;;;;23.63;34.18;99847.50;8259618;28;20756;-72
2022/05/14 09:56:05;;;;;;;1999.90;999.90;;;;;;;23.85;36.39;99844.59;8267031;28;20149;-72
2022/05/14 10:00:21;;;;;;;1999.90;999.90;;;;;;;23.88;34.24;99831.19;8265209;28;20084;-72
2022/05/14 10:04:40;;;;;;;1999.90;999.90;;;;;;;24.11;35.54;99828.19;8263380;28;20081;-71
2022/05/14 10:09:21;;;;;;;1999.90;999.90;;;;;;;24.16;34.67;99827.94;8280633;28;20050;-72
2022/05/14 10:13:26;;;;;;;1999.90;999.90;;;;;;;24.37;35.66;99825.03;8239574;28;20089;-72
2022/05/14 10:18:13;;;;;;;1999.90;999.90;;;;;;;24.50;34.01;99817.25;8276421;28;20053;-70
2022/05/14 10:27:27;;;;;;;1999.90;999.90;;;;;;;24.76;35.18;99809.63;8267058;28;20056;-72
2022/05/14 10:31:44;;;;;;;1999.90;999.90;;;;;;;24.94;34.97;99806.78;8290750;28;20045;-72
2022/05/14 10:36:04;;;;;;;1999.90;999.90;;;;;;;24.96;34.29;99799.63;8268829;28;20081;-73
2022/05/14 10:40:29;;;;;;;1999.90;999.90;;;;;;;25.08;34.23;99795.41;8257740;28;20050;-72
2022/05/14 10:44:30;;;;;;;1999.90;999.90;;;;;;;25.25;33.45;99791.78;8304428;28;20026;-72
2022/05/14 10:48:32;;;;;;;1999.90;999.90;;;;;;;25.37;33.58;99790.22;8237958;28;20081;-73
2022/05/14 10:52:37;;;;;;;1999.90;999.90;;;;;;;25.48;32.45;99793.06;8267885;28;20069;-72
2022/05/14 10:56:59;;;;;;;1999.90;999.90;;;;;;;25.49;32.64;99785.00;8264704;28;20054;-72
2022/05/14 11:01:00;;;;;;;1999.90;999.90;;;;;;;25.44;31.39;99789.75;8276577;28;20442;-73
2022/05/14 11:05:02;;;;;;;1999.90;999.90;;;;;;;25.29;31.56;99785.31;8263234;28;20045;-72
2022/05/14 11:09:22;;;;;;;1999.90;999.90;;;;;;;25.09;30.61;99781.19;8260823;28;20046;-74
2022/05/14 11:13:25;;;;;;;1999.90;999.90;;;;;;;25.46;34.14;99782.53;8278058;28;20069;-73
2022/05/14 11:17:34;;;;;;;1999.90;999.90;;;;;;;25.66;33.64;99780.47;8261390;28;20077;-74
2022/05/14 11:21:40;;;;;;;1999.90;999.90;;;;;;;25.78;32.53;99779.78;8266722;28;20060;-73
2022/05/14 11:25:41;;;;;;;1999.90;999.90;;;;;;;25.89;33.50;99772.88;8283469;28;20041;-74
2022/05/14 11:30:01;;;;;;;1999.90;999.90;;;;;;;25.80;31.40;99770.75;8264430;28;20057;-73
2022/05/14 11:34:19;;;;;;;1999.90;999.90;;;;;;;25.76;32.07;99763.91;8263520;28;20742;-72
2022/05/14 11:38:23;;;;;;;1999.90;999.90;;;;;;;25.75;32.13;99770.19;8270065;28;20081;-72
2022/05/14 11:42:29;;;;;;;1999.90;999.90;;;;;;;25.98;31.33;99773.25;8282890;28;20080;-72
2022/05/14 11:46:41;;;;;;;1999.90;999.90;;;;;;;25.89;31.13;99762.22;8270554;28;20049;-72
2022/05/14 11:50:54;;;;;;;1999.90;999.90;;;;;;;25.69;30.33;99761.72;8250929;28;20076;-72
2022/05/14 11:55:22;;;;;;;1999.90;999.90;;;;;;;25.83;33.10;99757.25;8261441;28;20470;-72
2022/05/14 12:00:00;;;;;;;1999.90;999.90;;;;;;;26.15;33.41;99757.94;8278539;28;20053;-72
2022/05/14 12:04:14;;;;;;;1999.90;999.90;;;;;;;26.12;31.05;99758.13;8276112;28;20050;-72
2022/05/14 12:08:58;;;;;;;1999.90;999.90;;;;;;;25.86;30.53;99749.13;8281725;28;20049;-72
2022/05/14 12:13:10;;;;;;;1999.90;999.90;;;;;;;26.15;32.14;99743.75;8281614;28;20383;-73
2022/05/14 12:17:21;;;;;;;1999.90;999.90;;;;;;;26.26;29.69;99743.09;8271968;28;20050;-72
2022/05/14 12:21:23;;;;;;;1999.90;999.90;;;;;;;26.00;29.80;99747.38;8261715;28;20061;-73
2022/05/14 12:25:38;;;;;;;1999.90;999.90;;;;;;;26.20;30.40;99734.53;8256856;28;20797;-72
2022/05/14 12:29:40;;;;;;;1999.90;999.90;;;;;;;26.26;30.38;99729.78;8280074;28;20088;-73
2022/05/14 12:33:51;;;;;;;1999.90;999.90;;;;;;;26.50;32.07;99722.91;8276800;28;20074;-72
2022/05/14 12:37:55;;;;;;;1999.90;999.90;;;;;;;26.18;29.73;99719.59;8263842;28;20081;-72
2022/05/14 12:42:05;;;;;;;1999.90;999.90;;;;;;;26.00;29.05;99720.75;8281551;28;20073;-72
2022/05/14 12:46:10;;;;;;;1999.90;999.90;;;;;;;25.66;29.28;99713.97;8271411;28;20104;-72
2022/05/14 12:50:26;;;;;;;1999.90;999.90;;;;;;;25.79;30.30;99702.53;8265401;28;20042;-72
2022/05/14 12:54:30;;;;;;;1999.90;999.90;;;;;;;25.97;30.31;99705.84;8288038;28;20120;-71
2022/05/14 12:58:34;;;;;;;1999.90;999.90;;;;;;;26.21;29.98;99695.44;8261437;28;20077;-72
2022/05/14 13:02:43;;;;;;;1999.90;999.90;;;;;;;26.33;30.64;99693.81;8281638;28;20085;-72
2022/05/14 13:06:46;;;;;;;1999.90;999.90;;;;;;;26.54;30.76;99683.59;8287316;28;20077;-72
2022/05/14 13:11:00;;;;;;;1999.90;999.90;;;;;;;26.60;29.25;99680.56;8266650;28;20115;-71
2022/05/14 13:15:05;;;;;;;1999.90;999.90;;;;;;;26.44;28.25;99673.56;8262710;28;20037;-72
2022/05/14 13:19:26;;;;;;;1999.90;999.90;;;;;;;26.69;31.21;99670.13;8269237;28;20625;-71
2022/05/14 13:23:28;;;;;;;1999.90;999.90;;;;;;;26.72;29.00;99669.91;8286220;28;20042;-71
2022/05/14 13:27:36;;;;;;;1999.90;999.90;;;;;;;26.86;29.82;99661.00;8263275;28;20042;-73
2022/05/14 13:31:38;;;;;;;1999.90;999.90;;;;;;;27.04;27.92;99664.28;8277754;28;20693;-73
2022/05/14 13:40:36;;;;;;;1999.90;999.90;;;;;;;26.85;28.52;99648.66;8264662;28;20069;-72
2022/05/14 13:44:39;;;;;;;1999.90;999.90;;;;;;;26.88;28.50;99658.25;8235033;28;20458;-72
2022/05/14 13:48:43;;;;;;;1999.90;999.90;;;;;;;26.80;28.03;99656.97;8275501;28;20101;-72
2022/05/14 13:52:53;;;;;;;1999.90;999.90;;;;;;;26.69;28.59;99653.28;8281736;28;20042;-72
2022/05/14 13:57:04;;;;;;;1999.90;999.90;;;;;;;26.86;28.23;99658.34;8280188;28;20549;-71
2022/05/14 14:01:10;;;;;;;1999.90;999.90;;;;;;;26.73;26.97;99654.78;8283319;28;20160;-74
2022/05/14 14:05:18;;;;;;;1999.90;999.90;;;;;;;26.78;27.56;99642.03;8267597;28;20741;-72
2022/05/14 14:09:20;;;;;;;1999.90;999.90;;;;;;;26.71;26.70;99640.72;8269498;28;20084;-72
2022/05/14 14:13:21;;;;;;;;;;;;;;;26.54;25.40;99646.31;8268530;28;20044;-73
2022/05/14 14:17:23;;;;;;;1999.90;999.90;;;;;;;26.39;25.98;99634.84;8281122;28;19925;-73
2022/05/14 14:21:26;;;;;;;1999.90;999.90;;;;;;;26.48;27.89;99629.78;8285167;28;20048;-74
2022/05/14 14:25:29;;;;;;;1999.90;999.90;;;;;;;26.66;27.63;99629.53;8262022;28;20072;-73
2022/05/14 14:29:30;;;;;;;1999.90;999.90;;;;;;;26.52;26.56;99624.25;8281115;28;20659;-74
2022/05/14 14:33:36;;;;;;;1999.90;999.90;;;;;;;26.60;28.00;99616.63;8279401;28;20064;-74
2022/05/14 14:37:39;;;;;;;1999.90;999.90;;;;;;;26.75;27.29;99612.91;8286718;28;20045;-75
2022/05/14 14:41:41;;;;;;;1999.90;999.90;;;;;;;26.68;26.39;99607.16;8282327;28;20065;-75
2022/05/14 14:45:44;;;;;;;1999.90;999.90;;;;;;;26.52;27.01;99610.94;8273130;28;20165;-74
2022/05/14 14:49:45;;;;;;;1999.90;999.90;;;;;;;26.48;27.41;99597.84;8264492;28;20767;-75
2022/05/14 14:53:47;;;;;;;1999.90;999.90;;;;;;;26.38;25.63;99609.19;8277975;28;20265;-73
2022/05/14 14:57:50;;;;;;;1999.90;999.90;;;;;;;26.38;26.94;99599.38;8264910;28;20069;-73
2022/05/14 15:02:00;;;;;;;1999.90;999.90;;;;;;;26.37;27.79;99600.34;8279164;28;20050;-73
2022/05/14 15:06:03;;;;;;;1999.90;999.90;;;;;;;26.57;27.32;99590.16;8284614;28;20038;-74
2022/05/14 15:10:05;;;;;;;1999.90;999.90;;;;;;;26.70;27.36;99601.72;8270465;28;20461;-74
2022/05/14 15:14:12;;;;;;;1999.90;999.90;;;;;;;26.80;25.61;99597.47;8257417;28;20053;-73
2022/05/14 15:18:13;;;;;;;1999.90;999.90;;;;;;;26.82;27.26;99592.91;8256705;28;20542;-74
2022/05/14 15:22:15;;;;;;;;;;;;;;;26.86;26.57;99598.88;8275515;28;20057;-73
2022/05/14 15:26:19;;;;;;;1999.90;999.90;;;;;;;26.98;27.09;99585.56;8257409;28;19931;-73
2022/05/14 15:30:20;;;;;;;1999.90;999.90;;;;;;;27.06;26.35;99583.25;8264725;28;20070;-73
2022/05/14 15:34:22;;;;;;;1999.90;999.90;;;;;;;27.16;26.04;99580.81;8256082;28;20077;-72
2022/05/14 15:38:23;;;;;;;1999.90;999.90;;;;;;;27.17;26.56;99579.84;8283237;28;20052;-73
2022/05/14 15:42:51;;;;;;;1999.90;999.90;;;;;;;26.95;25.41;99572.47;8254293;28;20720;-72
2022/05/14 15:46:58;;;;;;;1999.90;999.90;;;;;;;27.01;27.33;99563.19;8280706;28;20050;-73
2022/05/14 15:51:06;;;;;;;1999.90;999.90;;;;;;;27.17;27.95;99571.00;8282362;28;20156;-73
2022/05/14 15:55:11;;;;;;;1999.90;999.90;;;;;;;27.31;29.35;99566.41;8283030;28;20128;-73
2022/05/14 15:59:12;;;;;;;1999.90;999.90;;;;;;;27.09;26.58;99560.84;8283246;28;20057;-73
2022/05/14 16:03:14;;;;;;;1999.90;999.90;;;;;;;27.05;26.98;99562.88;8262235;28;20141;-72
2022/05/14 16:07:16;;;;;;;1999.90;999.90;;;;;;;27.04;28.32;99557.66;8264074;28;20690;-73
2022/05/14 16:16:10;;;;;;;1999.90;999.90;;;;;;;26.87;28.04;99548.13;8265661;28;20088;-73
2022/05/14 16:20:05;;;;;;;1999.90;999.90;;;;;;;26.73;28.43;99549.06;8265743;28;20073;-73
2022/05/14 16:24:09;;;;;;;1999.90;999.90;;;;;;;26.54;28.24;99550.44;8253192;28;20497;-73
2022/05/14 16:28:10;;;;;;;1999.90;999.90;;;;;;;26.10;28.53;99535.59;8258979;28;20060;-73
2022/05/14 16:32:11;;;;;;;;;;;;;;;25.64;29.88;99538.53;8253037;28;20148;-73
2022/05/14 16:36:14;;;;;;;1999.90;999.90;;;;;;;25.15;32.81;99535.47;8271530;28;19936;-73
2022/05/14 16:40:16;;;;;;;1999.90;999.90;;;;;;;24.76;31.59;99531.59;8278655;28;21083;-73
2022/05/14 16:44:18;;;;;;;1999.90;999.90;;;;;;;24.49;31.08;99526.16;8257274;28;20536;-73
2022/05/14 16:48:20;;;;;;;1999.90;999.90;;;;;;;24.28;31.82;99522.94;8278443;28;20074;-73
2022/05/14 16:52:21;;;;;;;1999.90;999.90;;;;;;;24.04;33.03;99525.19;8277773;28;20137;-73
2022/05/14 16:56:23;;;;;;;1999.90;999.90;;;;;;;23.81;34.37;99538.91;8286945;28;20076;-73
2022/05/14 17:00:33;;;;;;;1999.90;999.90;;;;;;;23.61;36.84;99532.06;8285272;28;20057;-74
2022/05/14 17:04:35;;;;;;;1999.90;999.90;;;;;;;23.44;37.37;99538.28;8266491;28;20046;-74
2022/05/14 17:08:37;;;;;;;1999.90;999.90;;;;;;;23.22;38.48;99537.75;8265672;28;20046;-73
2022/05/14 17:13:01;;;;;;;1999.90;999.90;;;;;;;23.07;36.33;99527.97;8282728;28;20056;-74
2022/05/14 17:17:03;;;;;;;1999.90;999.90;;;;;;;23.04;37.18;99530.78;8282967;28;20041;-74
2022/05/14 17:21:04;;;;;;;1999.90;999.90;;;;;;;22.85;37.84;99531.75;8281270;28;20077;-74
2022/05/14 17:25:11;;;;;;;1999.90;999.90;;;;;;;22.78;37.30;99527.66;8295243;28;20046;-74
2022/05/14 17:29:12;;;;;;;1999.90;999.90;;;;;;;22.72;36.98;99521.84;8285188;28;20076;-73
2022/05/14 17:33:14;;;;;;;1999.90;999.90;;;;;;;22.57;39.22;99519.03;8285886;28;20141;-74
2022/05/14 17:41:46;;;;;;;1999.90;999.90;;;;;;;22.18;39.19;99519.28;8272863;28;20173;-73
2022/05/14 17:45:47;;;;;;;1999.90;999.90;;;;;;;21.95;38.64;99509.81;8277006;28;20054;-72
2022/05/14 17:49:52;;;;;;;1999.90;999.90;;;;;;;21.77;40.18;99515.13;8257664;28;20423;-73
2022/05/14 17:53:57;;;;;;;1999.90;999.90;;;;;;;21.60;42.93;99516.78;8282106;28;20057;-73
2022/05/14 17:57:59;;;;;;;1999.90;999.90;;;;;;;21.44;40.68;99512.31;8275821;28;20049;-73
2022/05/14 18:02:05;;;;;;;;;;;;;;;21.22;41.81;99518.56;8274131;28;20197;-75
2022/05/14 18:06:10;;;;;;;1999.90;999.90;;;;;;;21.04;42.52;99512.31;8281897;28;19925;-75
2022/05/14 18:10:14;;;;;;;1999.90;999.90;;;;;;;20.91;42.70;99511.16;8280684;28;20046;-75
2022/05/14 18:14:19;;;;;;;1999.90;999.90;;;;;;;20.65;46.19;99509.69;8288056;28;20042;-75
2022/05/14 18:18:21;;;;;;;1999.90;999.90;;;;;;;20.26;47.84;99512.19;8278461;28;20747;-75
2022/05/14 18:22:22;;;;;;;1999.90;999.90;;;;;;;19.95;48.13;99507.34;8279569;28;20053;-74
2022/05/14 18:26:26;;;;;;;1999.90;999.90;;;;;;;19.65;49.67;99512.06;8276129;28;20048;-75
2022/05/14 18:30:33;;;;;;;1999.90;999.90;;;;;;;19.47;48.58;99508.34;8277132;28;20574;-75
2022/05/14 18:34:36;;;;;;;1999.90;999.90;;;;;;;19.26;50.08;99514.44;8240728;28;20092;-75
2022/05/14 18:38:41;;;;;;;1999.90;999.90;;;;;;;18.96;49.32;99514.63;8263813;28;20146;-74
2022/05/14 18:42:43;;;;;;;1999.90;999.90;;;;;;;18.64;50.02;99514.94;8283335;28;20060;-74
2022/05/14 18:46:45;;;;;;;1999.90;999.90;;;;;;;18.36;51.02;99525.53;8286927;28;20072;-76
2022/05/14 18:50:46;;;;;;;1999.90;999.90;;;;;;;18.23;50.35;99513.69;8259817;28;20049;-75
2022/05/14 18:54:48;;;;;;;1999.90;999.90;;;;;;;17.97;50.93;99509.31;8280425;28;20042;-75
2022/05/14 18:58:49;;;;;;;1999.90;999.90;;;;;;;17.76;51.62;99511.69;8284354;28;20148;-75